sensor_id;sensor_type;location;lat;lon;timestamp;pressure;altitude;pressure_sealevel;temperature;humidity
18918;BME280;9591;52.742;13.650;2023-08-30T00:01:47;100207.78;;;20.42;100.00
18918;BME280;9591;52.742;13.650;2023-08-30T00:04:34;100208.75;;;20.41;99.71
18918;BME280;9591;52.742;13.650;2023-08-30T00:07:21;100201.16;;;20.35;100.00
18918;BME280;9591;52.742;13.650;2023-08-30T00:10:10;100203.09;;;20.55;99.30
18918;BME280;9591;52.742;13.650;2023-08-30T00:12:57;100201.59;;;20.73;98.53
18918;BME280;9591;52.742;13.650;2023-08-30T00:15:43;100207.13;;;20.92;97.35
18918;BME280;9591;52.742;13.650;2023-08-30T00:18:30;100209.94;;;20.59;98.96
18918;BME280;9591;52.742;13.650;2023-08-30T00:21:17;100214.88;;;20.43;99.63
18918;BME280;9591;52.742;13.650;2023-08-30T00:24:05;100211.88;;;20.68;98.26
18918;BME280;9591;52.742;13.650;2023-08-30T00:26:53;100221.41;;;20.72;98.03
18918;BME280;9591;52.742;13.650;2023-08-30T00:29:40;100218.09;;;20.80;97.13
18918;BME280;9591;52.742;13.650;2023-08-30T00:32:27;100217.56;;;21.18;94.25
18918;BME280;9591;52.742;13.650;2023-08-30T00:35:14;100217.97;;;21.76;90.70
18918;BME280;9591;52.742;13.650;2023-08-30T00:38:01;100226.00;;;21.24;93.11
18918;BME280;9591;52.742;13.650;2023-08-30T00:40:48;100217.94;;;21.24;93.57
18918;BME280;9591;52.742;13.650;2023-08-30T00:43:36;100217.22;;;21.43;92.39
18918;BME280;9591;52.742;13.650;2023-08-30T00:46:24;100212.41;;;21.26;93.46
18918;BME280;9591;52.742;13.650;2023-08-30T00:49:11;100208.50;;;21.19;94.00
18918;BME280;9591;52.742;13.650;2023-08-30T00:52:01;100206.84;;;21.07;95.18
18918;BME280;9591;52.742;13.650;2023-08-30T00:54:49;100202.97;;;21.32;94.00
18918;BME280;9591;52.742;13.650;2023-08-30T00:57:36;100202.81;;;21.33;93.14
18918;BME280;9591;52.742;13.650;2023-08-30T01:00:25;100132.03;;;21.21;91.37
18918;BME280;9591;52.742;13.650;2023-08-30T01:03:13;100192.53;;;21.69;90.91
18918;BME280;9591;52.742;13.650;2023-08-30T01:06:00;100184.09;;;21.83;89.64
18918;BME280;9591;52.742;13.650;2023-08-30T01:08:48;100191.03;;;21.76;90.50
18918;BME280;9591;52.742;13.650;2023-08-30T01:11:42;100181.25;;;22.05;87.21
18918;BME280;9591;52.742;13.650;2023-08-30T01:14:34;100205.38;;;21.55;90.58
18918;BME280;9591;52.742;13.650;2023-08-30T01:17:27;100206.19;;;21.14;93.12
18918;BME280;9591;52.742;13.650;2023-08-30T01:20:16;100200.00;;;21.55;90.49
18918;BME280;9591;52.742;13.650;2023-08-30T01:23:06;100199.22;;;21.44;90.95
18918;BME280;9591;52.742;13.650;2023-08-30T01:25:59;100203.50;;;21.46;91.05
18918;BME280;9591;52.742;13.650;2023-08-30T01:28:52;100203.94;;;21.51;90.57
18918;BME280;9591;52.742;13.650;2023-08-30T01:31:44;100209.78;;;21.36;92.05
18918;BME280;9591;52.742;13.650;2023-08-30T01:34:33;100219.69;;;20.71;95.57
18918;BME280;9591;52.742;13.650;2023-08-30T01:37:20;100217.25;;;20.68;96.86
18918;BME280;9591;52.742;13.650;2023-08-30T01:40:09;100224.16;;;20.50;98.03
18918;BME280;9591;52.742;13.650;2023-08-30T01:42:57;100229.66;;;20.48;97.95
18918;BME280;9591;52.742;13.650;2023-08-30T01:45:47;100228.19;;;20.44;98.31
18918;BME280;9591;52.742;13.650;2023-08-30T01:48:35;100237.34;;;20.42;98.55
18918;BME280;9591;52.742;13.650;2023-08-30T01:51:23;100237.56;;;20.27;99.54
18918;BME280;9591;52.742;13.650;2023-08-30T01:54:13;100227.31;;;20.55;97.81
18918;BME280;9591;52.742;13.650;2023-08-30T01:57:04;100221.81;;;20.56;98.00
18918;BME280;9591;52.742;13.650;2023-08-30T01:59:51;100220.47;;;20.62;97.59
18918;BME280;9591;52.742;13.650;2023-08-30T02:02:40;100213.25;;;20.51;98.17
18918;BME280;9591;52.742;13.650;2023-08-30T02:05:27;100194.16;;;20.66;97.10
18918;BME280;9591;52.742;13.650;2023-08-30T02:08:16;100202.22;;;20.66;96.70
18918;BME280;9591;52.742;13.650;2023-08-30T02:11:07;100216.78;;;20.63;96.88
18918;BME280;9591;52.742;13.650;2023-08-30T02:13:58;100224.25;;;20.37;98.08
18918;BME280;9591;52.742;13.650;2023-08-30T02:16:46;100226.81;;;20.27;98.90
18918;BME280;9591;52.742;13.650;2023-08-30T02:19:35;100224.75;;;20.20;99.18
18918;BME280;9591;52.742;13.650;2023-08-30T02:22:21;100224.00;;;20.18;99.98
18918;BME280;9591;52.742;13.650;2023-08-30T02:25:08;100244.41;;;20.32;98.48
18918;BME280;9591;52.742;13.650;2023-08-30T02:27:55;100228.78;;;20.25;99.00
18918;BME280;9591;52.742;13.650;2023-08-30T02:30:42;100220.22;;;20.20;98.92
18918;BME280;9591;52.742;13.650;2023-08-30T02:33:29;100225.13;;;20.15;99.55
18918;BME280;9591;52.742;13.650;2023-08-30T02:36:18;100219.84;;;20.03;100.00
18918;BME280;9591;52.742;13.650;2023-08-30T02:39:05;100207.03;;;19.95;100.00
18918;BME280;9591;52.742;13.650;2023-08-30T02:41:51;100205.81;;;19.99;100.00
18918;BME280;9591;52.742;13.650;2023-08-30T02:44:38;100206.31;;;20.04;100.00
18918;BME280;9591;52.742;13.650;2023-08-30T02:47:26;100199.47;;;20.11;99.47
18918;BME280;9591;52.742;13.650;2023-08-30T02:50:13;100192.97;;;20.14;99.88
18918;BME280;9591;52.742;13.650;2023-08-30T02:53:01;100182.97;;;20.16;99.74
18918;BME280;9591;52.742;13.650;2023-08-30T02:55:49;100193.09;;;20.01;100.00
18918;BME280;9591;52.742;13.650;2023-08-30T02:58:36;100193.22;;;20.00;100.00
18918;BME280;9591;52.742;13.650;2023-08-30T03:01:22;100186.25;;;19.97;100.00
18918;BME280;9591;52.742;13.650;2023-08-30T03:04:09;100179.69;;;19.79;100.00
18918;BME280;9591;52.742;13.650;2023-08-30T03:06:56;100181.91;;;19.85;100.00
18918;BME280;9591;52.742;13.650;2023-08-30T03:09:51;100165.97;;;20.04;100.00
18918;BME280;9591;52.742;13.650;2023-08-30T03:12:39;100162.56;;;20.02;99.52
18918;BME280;9591;52.742;13.650;2023-08-30T03:15:25;100164.03;;;20.06;99.21
18918;BME280;9591;52.742;13.650;2023-08-30T03:18:12;100164.41;;;20.02;99.33
18918;BME280;9591;52.742;13.650;2023-08-30T03:21:00;100169.66;;;20.14;99.18
18918;BME280;9591;52.742;13.650;2023-08-30T03:23:47;100175.88;;;20.26;97.93
18918;BME280;9591;52.742;13.650;2023-08-30T03:26:36;100171.13;;;20.07;98.93
18918;BME280;9591;52.742;13.650;2023-08-30T03:29:23;100177.22;;;20.20;98.50
18918;BME280;9591;52.742;13.650;2023-08-30T03:32:13;100189.06;;;20.51;96.60
18918;BME280;9591;52.742;13.650;2023-08-30T03:35:00;100194.81;;;20.47;96.48
18918;BME280;9591;52.742;13.650;2023-08-30T03:37:50;100195.53;;;20.15;97.78
18918;BME280;9591;52.742;13.650;2023-08-30T03:40:37;100201.41;;;20.32;97.85
18918;BME280;9591;52.742;13.650;2023-08-30T03:43:27;100201.66;;;20.17;97.62
18918;BME280;9591;52.742;13.650;2023-08-30T03:46:14;100201.03;;;20.14;98.58
18918;BME280;9591;52.742;13.650;2023-08-30T03:49:01;100200.06;;;20.15;98.16
18918;BME280;9591;52.742;13.650;2023-08-30T03:51:48;100200.53;;;21.49;90.95
18918;BME280;9591;52.742;13.650;2023-08-30T03:54:35;100206.94;;;22.40;84.26
18918;BME280;9591;52.742;13.650;2023-08-30T03:57:22;100203.00;;;23.50;78.37
18918;BME280;9591;52.742;13.650;2023-08-30T04:00:15;100211.53;;;20.61;94.13
18918;BME280;9591;52.742;13.650;2023-08-30T04:03:09;100209.97;;;20.25;96.73
18918;BME280;9591;52.742;13.650;2023-08-30T04:05:56;100170.00;;;19.98;97.37
18918;BME280;9591;52.742;13.650;2023-08-30T04:08:43;100198.84;;;20.30;97.58
18918;BME280;9591;52.742;13.650;2023-08-30T04:11:30;100190.78;;;20.19;97.40
18918;BME280;9591;52.742;13.650;2023-08-30T04:14:17;100198.59;;;20.55;96.06
18918;BME280;9591;52.742;13.650;2023-08-30T04:17:07;100199.69;;;20.53;95.64
18918;BME280;9591;52.742;13.650;2023-08-30T04:19:54;100204.22;;;20.30;96.87
18918;BME280;9591;52.742;13.650;2023-08-30T04:22:41;100197.47;;;20.36;96.41
18918;BME280;9591;52.742;13.650;2023-08-30T04:25:28;100197.38;;;20.26;97.25
18918;BME280;9591;52.742;13.650;2023-08-30T04:28:15;100197.97;;;20.29;98.22
18918;BME280;9591;52.742;13.650;2023-08-30T04:31:03;100197.59;;;20.34;97.67
18918;BME280;9591;52.742;13.650;2023-08-30T04:33:51;100198.22;;;20.26;97.50
18918;BME280;9591;52.742;13.650;2023-08-30T04:36:40;100207.38;;;20.35;97.43
18918;BME280;9591;52.742;13.650;2023-08-30T04:39:27;100200.56;;;20.42;97.09
18918;BME280;9591;52.742;13.650;2023-08-30T04:42:16;100204.47;;;20.49;96.79
18918;BME280;9591;52.742;13.650;2023-08-30T04:45:03;100216.56;;;20.33;97.25
18918;BME280;9591;52.742;13.650;2023-08-30T04:47:49;100221.09;;;20.43;96.67
18918;BME280;9591;52.742;13.650;2023-08-30T04:50:38;100215.22;;;20.49;96.43
18918;BME280;9591;52.742;13.650;2023-08-30T04:53:25;100219.50;;;20.29;97.32
18918;BME280;9591;52.742;13.650;2023-08-30T04:56:12;100220.09;;;20.22;97.73
18918;BME280;9591;52.742;13.650;2023-08-30T04:59:00;100224.63;;;20.33;97.21
18918;BME280;9591;52.742;13.650;2023-08-30T05:01:50;100222.06;;;20.09;98.90
18918;BME280;9591;52.742;13.650;2023-08-30T05:04:39;100228.53;;;20.06;99.40
18918;BME280;9591;52.742;13.650;2023-08-30T05:07:27;100228.53;;;20.06;99.59
18918;BME280;9591;52.742;13.650;2023-08-30T05:10:14;100229.75;;;20.13;98.99
18918;BME280;9591;52.742;13.650;2023-08-30T05:13:01;100225.84;;;20.06;99.81
18918;BME280;9591;52.742;13.650;2023-08-30T05:15:49;100226.47;;;20.21;99.42
18918;BME280;9591;52.742;13.650;2023-08-30T05:18:36;100215.59;;;20.00;100.00
18918;BME280;9591;52.742;13.650;2023-08-30T05:21:23;100223.44;;;19.92;100.00
18918;BME280;9591;52.742;13.650;2023-08-30T05:24:11;100227.06;;;20.02;100.00
18918;BME280;9591;52.742;13.650;2023-08-30T05:26:58;100226.09;;;20.03;100.00
18918;BME280;9591;52.742;13.650;2023-08-30T05:29:47;100225.84;;;20.17;99.40
18918;BME280;9591;52.742;13.650;2023-08-30T05:32:35;100225.59;;;20.09;100.00
18918;BME280;9591;52.742;13.650;2023-08-30T05:35:22;100226.81;;;20.16;99.82
18918;BME280;9591;52.742;13.650;2023-08-30T05:38:09;100227.56;;;20.18;99.44
18918;BME280;9591;52.742;13.650;2023-08-30T05:41:36;100230.00;;;20.33;99.01
18918;BME280;9591;52.742;13.650;2023-08-30T05:44:32;100219.84;;;20.36;98.74
18918;BME280;9591;52.742;13.650;2023-08-30T05:47:21;100204.56;;;20.59;97.46
18918;BME280;9591;52.742;13.650;2023-08-30T05:50:09;100206.69;;;21.08;95.76
18918;BME280;9591;52.742;13.650;2023-08-30T05:52:55;100208.44;;;20.77;97.51
18918;BME280;9591;52.742;13.650;2023-08-30T05:55:42;100212.25;;;20.95;96.58
18918;BME280;9591;52.742;13.650;2023-08-30T05:58:31;100206.72;;;21.71;90.18
18918;BME280;9591;52.742;13.650;2023-08-30T06:01:18;100214.94;;;21.90;89.60
18918;BME280;9591;52.742;13.650;2023-08-30T06:04:05;100208.09;;;21.86;89.62
18918;BME280;9591;52.742;13.650;2023-08-30T06:06:52;100210.44;;;22.00;89.24
18918;BME280;9591;52.742;13.650;2023-08-30T06:09:39;100216.53;;;22.23;88.55
18918;BME280;9591;52.742;13.650;2023-08-30T06:12:26;100218.88;;;21.86;90.68
18918;BME280;9591;52.742;13.650;2023-08-30T06:15:15;100215.19;;;21.56;93.18
18918;BME280;9591;52.742;13.650;2023-08-30T06:18:02;100206.44;;;21.43;94.38
18918;BME280;9591;52.742;13.650;2023-08-30T06:20:49;100211.22;;;22.62;88.30
18918;BME280;9591;52.742;13.650;2023-08-30T06:23:37;100207.47;;;22.93;86.82
18918;BME280;9591;52.742;13.650;2023-08-30T06:26:24;100204.97;;;22.61;88.16
18918;BME280;9591;52.742;13.650;2023-08-30T06:29:11;100204.03;;;21.71;91.77
18918;BME280;9591;52.742;13.650;2023-08-30T06:31:59;100206.38;;;21.85;92.77
18918;BME280;9591;52.742;13.650;2023-08-30T06:34:46;100215.91;;;21.89;92.37
18918;BME280;9591;52.742;13.650;2023-08-30T06:37:33;100214.06;;;21.89;93.41
18918;BME280;9591;52.742;13.650;2023-08-30T06:40:20;100207.28;;;21.95;94.15
18918;BME280;9591;52.742;13.650;2023-08-30T06:43:07;100207.03;;;21.98;94.93
18918;BME280;9591;52.742;13.650;2023-08-30T06:45:57;100221.63;;;22.16;92.15
18918;BME280;9591;52.742;13.650;2023-08-30T06:48:45;100218.06;;;22.16;91.87
18918;BME280;9591;52.742;13.650;2023-08-30T06:51:32;100216.25;;;22.26;91.66
18918;BME280;9591;52.742;13.650;2023-08-30T06:54:19;100213.47;;;22.07;92.28
18918;BME280;9591;52.742;13.650;2023-08-30T06:57:08;100211.63;;;22.07;94.32
18918;BME280;9591;52.742;13.650;2023-08-30T06:59:57;100208.50;;;22.02;94.35
18918;BME280;9591;52.742;13.650;2023-08-30T07:02:51;100198.84;;;21.79;94.44
18918;BME280;9591;52.742;13.650;2023-08-30T07:05:39;100205.72;;;21.92;94.81
18918;BME280;9591;52.742;13.650;2023-08-30T07:08:26;100203.09;;;22.02;94.71
18918;BME280;9591;52.742;13.650;2023-08-30T07:11:13;100205.81;;;22.02;94.31
18918;BME280;9591;52.742;13.650;2023-08-30T07:14:17;100200.00;;;22.07;94.01
18918;BME280;9591;52.742;13.650;2023-08-30T07:17:04;100203.91;;;22.23;92.51
18918;BME280;9591;52.742;13.650;2023-08-30T07:19:52;100212.81;;;22.14;93.38
18918;BME280;9591;52.742;13.650;2023-08-30T07:22:40;100213.13;;;22.21;93.02
18918;BME280;9591;52.742;13.650;2023-08-30T07:25:28;100206.34;;;22.36;92.17
18918;BME280;9591;52.742;13.650;2023-08-30T07:28:16;100202.66;;;22.37;90.98
18918;BME280;9591;52.742;13.650;2023-08-30T07:31:03;100196.31;;;22.08;92.77
18918;BME280;9591;52.742;13.650;2023-08-30T07:33:51;100203.56;;;22.07;93.30
18918;BME280;9591;52.742;13.650;2023-08-30T07:36:38;100196.97;;;22.31;92.32
18918;BME280;9591;52.742;13.650;2023-08-30T07:39:34;100205.97;;;22.10;91.32
18918;BME280;9591;52.742;13.650;2023-08-30T07:42:20;100215.81;;;22.00;93.21
18918;BME280;9591;52.742;13.650;2023-08-30T07:45:08;100215.38;;;22.16;92.98
18918;BME280;9591;52.742;13.650;2023-08-30T07:47:55;100207.41;;;22.14;94.02
18918;BME280;9591;52.742;13.650;2023-08-30T07:50:42;100223.91;;;22.21;93.22
18918;BME280;9591;52.742;13.650;2023-08-30T07:53:29;100225.69;;;22.41;92.63
18918;BME280;9591;52.742;13.650;2023-08-30T07:56:17;100216.28;;;22.36;93.10
18918;BME280;9591;52.742;13.650;2023-08-30T07:59:04;100214.31;;;22.38;93.00
18918;BME280;9591;52.742;13.650;2023-08-30T08:01:51;100211.84;;;22.25;93.02
18918;BME280;9591;52.742;13.650;2023-08-30T08:04:38;100213.66;;;22.15;94.32
18918;BME280;9591;52.742;13.650;2023-08-30T08:07:26;100210.44;;;22.80;91.04
18918;BME280;9591;52.742;13.650;2023-08-30T08:10:13;100218.28;;;22.34;93.42
18918;BME280;9591;52.742;13.650;2023-08-30T08:13:01;100210.94;;;22.45;92.39
18918;BME280;9591;52.742;13.650;2023-08-30T08:15:49;100219.88;;;22.46;92.98
18918;BME280;9591;52.742;13.650;2023-08-30T08:18:36;100220.59;;;22.48;93.26
18918;BME280;9591;52.742;13.650;2023-08-30T08:21:23;100216.19;;;22.66;91.46
18918;BME280;9591;52.742;13.650;2023-08-30T08:24:10;100214.91;;;22.51;93.73
18918;BME280;9591;52.742;13.650;2023-08-30T08:26:57;100217.63;;;22.51;94.71
18918;BME280;9591;52.742;13.650;2023-08-30T08:29:45;100220.44;;;22.59;93.65
18918;BME280;9591;52.742;13.650;2023-08-30T08:32:32;100223.16;;;22.69;91.12
18918;BME280;9591;52.742;13.650;2023-08-30T08:35:19;100219.03;;;22.65;93.28
18918;BME280;9591;52.742;13.650;2023-08-30T08:38:06;100212.25;;;22.70;89.65
18918;BME280;9591;52.742;13.650;2023-08-30T08:41:01;100210.59;;;22.79;83.33
18918;BME280;9591;52.742;13.650;2023-08-30T08:43:48;100212.22;;;22.51;89.33
18918;BME280;9591;52.742;13.650;2023-08-30T08:46:38;100174.56;;;22.40;89.81
18918;BME280;9591;52.742;13.650;2023-08-30T08:49:25;100205.56;;;22.74;89.90
18918;BME280;9591;52.742;13.650;2023-08-30T08:52:14;100207.63;;;23.01;88.38
18918;BME280;9591;52.742;13.650;2023-08-30T08:55:16;100206.97;;;22.59;90.52
18918;BME280;9591;52.742;13.650;2023-08-30T08:58:03;100205.03;;;22.80;91.88
18918;BME280;9591;52.742;13.650;2023-08-30T09:00:50;100207.75;;;23.19;86.12
18918;BME280;9591;52.742;13.650;2023-08-30T09:03:39;100206.78;;;23.20;86.93
18918;BME280;9591;52.742;13.650;2023-08-30T09:06:28;100201.34;;;23.39;84.01
18918;BME280;9591;52.742;13.650;2023-08-30T09:09:15;100184.13;;;23.40;83.09
18918;BME280;9591;52.742;13.650;2023-08-30T09:12:02;100202.09;;;23.22;88.67
18918;BME280;9591;52.742;13.650;2023-08-30T09:14:53;100195.06;;;23.48;89.36
18918;BME280;9591;52.742;13.650;2023-08-30T09:17:40;100186.94;;;23.68;86.12
18918;BME280;9591;52.742;13.650;2023-08-30T09:20:29;100204.88;;;23.49;90.45
18918;BME280;9591;52.742;13.650;2023-08-30T09:23:17;100195.06;;;23.68;90.05
18918;BME280;9591;52.742;13.650;2023-08-30T09:26:04;100189.91;;;23.74;89.11
18918;BME280;9591;52.742;13.650;2023-08-30T09:28:52;100194.94;;;24.06;85.77
18918;BME280;9591;52.742;13.650;2023-08-30T09:31:39;100189.28;;;24.27;86.25
18918;BME280;9591;52.742;13.650;2023-08-30T09:34:30;100183.19;;;23.88;87.33
18918;BME280;9591;52.742;13.650;2023-08-30T09:37:25;100183.03;;;24.27;86.32
18918;BME280;9591;52.742;13.650;2023-08-30T09:40:12;100184.44;;;23.94;74.00
18918;BME280;9591;52.742;13.650;2023-08-30T09:43:05;100174.91;;;24.27;82.79
18918;BME280;9591;52.742;13.650;2023-08-30T09:45:58;100174.50;;;24.49;80.93
18918;BME280;9591;52.742;13.650;2023-08-30T09:48:45;100188.59;;;24.70;77.51
18918;BME280;9591;52.742;13.650;2023-08-30T09:51:32;100179.47;;;24.71;76.02
18918;BME280;9591;52.742;13.650;2023-08-30T09:54:22;100174.44;;;24.59;81.10
18918;BME280;9591;52.742;13.650;2023-08-30T09:57:13;100188.72;;;24.51;82.46
18918;BME280;9591;52.742;13.650;2023-08-30T10:00:01;100158.72;;;24.44;82.66
18918;BME280;9591;52.742;13.650;2023-08-30T10:02:49;100180.56;;;24.61;80.62
18918;BME280;9591;52.742;13.650;2023-08-30T10:05:56;100181.78;;;24.66;77.35
18918;BME280;9591;52.742;13.650;2023-08-30T10:08:45;100179.53;;;25.07;72.35
18918;BME280;9591;52.742;13.650;2023-08-30T10:11:34;100175.38;;;24.67;77.83
18918;BME280;9591;52.742;13.650;2023-08-30T10:14:22;100177.59;;;24.99;73.63
18918;BME280;9591;52.742;13.650;2023-08-30T10:17:11;100170.63;;;24.97;76.37
18918;BME280;9591;52.742;13.650;2023-08-30T10:19:59;100165.72;;;24.82;71.76
18918;BME280;9591;52.742;13.650;2023-08-30T10:22:51;100169.53;;;25.07;72.67
18918;BME280;9591;52.742;13.650;2023-08-30T10:25:40;100163.91;;;25.01;78.33
18918;BME280;9591;52.742;13.650;2023-08-30T10:28:29;100155.69;;;25.36;74.51
18918;BME280;9591;52.742;13.650;2023-08-30T10:31:17;100156.44;;;24.85;64.77
18918;BME280;9591;52.742;13.650;2023-08-30T10:34:13;100163.13;;;25.08;69.34
18918;BME280;9591;52.742;13.650;2023-08-30T10:37:00;100171.97;;;24.65;64.70
18918;BME280;9591;52.742;13.650;2023-08-30T10:39:48;100166.69;;;24.46;69.71
18918;BME280;9591;52.742;13.650;2023-08-30T10:42:35;100165.75;;;24.55;74.92
18918;BME280;9591;52.742;13.650;2023-08-30T10:45:24;100173.38;;;24.69;70.98
18918;BME280;9591;52.742;13.650;2023-08-30T10:48:11;100168.88;;;26.17;60.49
18918;BME280;9591;52.742;13.650;2023-08-30T10:50:58;100180.34;;;25.25;64.15
18918;BME280;9591;52.742;13.650;2023-08-30T10:53:55;100177.19;;;25.12;62.91
18918;BME280;9591;52.742;13.650;2023-08-30T10:56:55;100157.97;;;24.88;68.40
18918;BME280;9591;52.742;13.650;2023-08-30T11:00:07;100171.81;;;25.20;66.70
18918;BME280;9591;52.742;13.650;2023-08-30T11:02:57;100131.06;;;24.68;69.98
18918;BME280;9591;52.742;13.650;2023-08-30T11:05:44;100167.31;;;25.29;65.85
18918;BME280;9591;52.742;13.650;2023-08-30T11:08:31;100172.13;;;25.35;72.64
18918;BME280;9591;52.742;13.650;2023-08-30T11:11:18;100171.63;;;25.39;66.51
18918;BME280;9591;52.742;13.650;2023-08-30T11:14:07;100175.59;;;25.27;61.25
18918;BME280;9591;52.742;13.650;2023-08-30T11:16:55;100165.00;;;25.34;66.21
18918;BME280;9591;52.742;13.650;2023-08-30T11:19:43;100158.88;;;25.75;74.71
18918;BME280;9591;52.742;13.650;2023-08-30T11:22:30;100160.41;;;25.78;73.76
18918;BME280;9591;52.742;13.650;2023-08-30T11:25:17;100164.72;;;25.45;62.20
18918;BME280;9591;52.742;13.650;2023-08-30T11:28:04;100163.16;;;24.81;72.53
18918;BME280;9591;52.742;13.650;2023-08-30T11:30:53;100168.56;;;24.63;75.00
18918;BME280;9591;52.742;13.650;2023-08-30T11:33:39;100161.38;;;24.90;71.47
18918;BME280;9591;52.742;13.650;2023-08-30T11:36:29;100157.84;;;24.44;75.24
18918;BME280;9591;52.742;13.650;2023-08-30T11:39:16;100149.81;;;24.07;80.02
18918;BME280;9591;52.742;13.650;2023-08-30T11:42:04;100156.69;;;23.92;82.28
18918;BME280;9591;52.742;13.650;2023-08-30T11:45:03;100160.84;;;23.86;83.66
18918;BME280;9591;52.742;13.650;2023-08-30T11:47:50;100163.03;;;23.73;84.63
18918;BME280;9591;52.742;13.650;2023-08-30T11:50:38;100166.34;;;23.57;83.93
18918;BME280;9591;52.742;13.650;2023-08-30T11:53:34;100160.63;;;23.70;85.23
18918;BME280;9591;52.742;13.650;2023-08-30T11:56:22;100150.22;;;24.12;83.39
18918;BME280;9591;52.742;13.650;2023-08-30T11:59:18;100155.84;;;23.91;84.31
18918;BME280;9591;52.742;13.650;2023-08-30T12:02:05;100151.75;;;23.87;84.25
18918;BME280;9591;52.742;13.650;2023-08-30T12:04:53;100152.31;;;23.81;84.08
18918;BME280;9591;52.742;13.650;2023-08-30T12:07:40;100150.75;;;24.15;83.19
18918;BME280;9591;52.742;13.650;2023-08-30T12:10:29;100142.22;;;24.38;81.50
18918;BME280;9591;52.742;13.650;2023-08-30T12:13:22;100150.84;;;24.24;83.10
18918;BME280;9591;52.742;13.650;2023-08-30T12:16:15;100150.50;;;24.09;85.38
18918;BME280;9591;52.742;13.650;2023-08-30T12:19:08;100153.31;;;24.44;84.61
18918;BME280;9591;52.742;13.650;2023-08-30T12:21:55;100151.00;;;24.67;81.27
18918;BME280;9591;52.742;13.650;2023-08-30T12:24:43;100146.44;;;24.68;83.69
18918;BME280;9591;52.742;13.650;2023-08-30T12:27:31;100151.94;;;24.94;81.54
18918;BME280;9591;52.742;13.650;2023-08-30T12:30:18;100155.47;;;25.04;72.06
18918;BME280;9591;52.742;13.650;2023-08-30T12:33:05;100145.31;;;25.32;63.90
18918;BME280;9591;52.742;13.650;2023-08-30T12:35:53;100138.22;;;25.31;62.65
18918;BME280;9591;52.742;13.650;2023-08-30T12:38:40;100135.88;;;25.36;64.16
18918;BME280;9591;52.742;13.650;2023-08-30T12:41:27;100131.09;;;25.30;67.90
18918;BME280;9591;52.742;13.650;2023-08-30T12:44:15;100139.53;;;25.01;75.77
18918;BME280;9591;52.742;13.650;2023-08-30T12:47:02;100138.09;;;24.79;80.11
18918;BME280;9591;52.742;13.650;2023-08-30T12:49:50;100131.75;;;24.88;80.25
18918;BME280;9591;52.742;13.650;2023-08-30T12:52:37;100139.72;;;24.90;69.65
18918;BME280;9591;52.742;13.650;2023-08-30T12:55:24;100130.53;;;25.00;66.50
18918;BME280;9591;52.742;13.650;2023-08-30T12:58:11;100135.88;;;25.10;68.41
18918;BME280;9591;52.742;13.650;2023-08-30T13:01:00;100127.47;;;25.21;66.12
18918;BME280;9591;52.742;13.650;2023-08-30T13:03:48;100131.53;;;24.99;75.03
18918;BME280;9591;52.742;13.650;2023-08-30T13:06:35;100129.91;;;24.89;78.18
18918;BME280;9591;52.742;13.650;2023-08-30T13:09:22;100128.59;;;24.93;78.14
18918;BME280;9591;52.742;13.650;2023-08-30T13:12:09;100135.53;;;24.95;79.18
18918;BME280;9591;52.742;13.650;2023-08-30T13:14:56;100129.28;;;24.95;76.94
18918;BME280;9591;52.742;13.650;2023-08-30T13:17:44;100124.97;;;25.02;76.67
18918;BME280;9591;52.742;13.650;2023-08-30T13:20:31;100129.50;;;24.83;77.52
18918;BME280;9591;52.742;13.650;2023-08-30T13:23:18;100120.88;;;24.98;66.77
18918;BME280;9591;52.742;13.650;2023-08-30T13:26:05;100119.91;;;24.89;75.62
18918;BME280;9591;52.742;13.650;2023-08-30T13:28:53;100121.84;;;24.79;77.57
18918;BME280;9591;52.742;13.650;2023-08-30T13:31:40;100129.81;;;24.80;77.27
18918;BME280;9591;52.742;13.650;2023-08-30T13:34:28;100128.59;;;24.75;79.74
18918;BME280;9591;52.742;13.650;2023-08-30T13:37:15;100134.59;;;24.51;80.35
18918;BME280;9591;52.742;13.650;2023-08-30T13:40:02;100129.78;;;24.45;78.93
18918;BME280;9591;52.742;13.650;2023-08-30T13:42:51;100126.34;;;24.25;78.07
18918;BME280;9591;52.742;13.650;2023-08-30T13:45:38;100122.84;;;24.15;80.25
18918;BME280;9591;52.742;13.650;2023-08-30T13:48:25;100127.31;;;24.06;78.63
18918;BME280;9591;52.742;13.650;2023-08-30T13:51:13;100121.56;;;23.92;79.90
18918;BME280;9591;52.742;13.650;2023-08-30T13:54:00;100121.88;;;23.79;80.03
18918;BME280;9591;52.742;13.650;2023-08-30T13:56:47;100120.25;;;23.59;80.63
18918;BME280;9591;52.742;13.650;2023-08-30T13:59:34;100127.06;;;23.53;80.79
18918;BME280;9591;52.742;13.650;2023-08-30T14:02:21;100122.63;;;23.15;83.49
18918;BME280;9591;52.742;13.650;2023-08-30T14:05:10;100115.97;;;22.90;86.85
18918;BME280;9591;52.742;13.650;2023-08-30T14:07:58;100118.22;;;23.14;84.91
18918;BME280;9591;52.742;13.650;2023-08-30T14:10:45;100122.34;;;23.08;84.70
18918;BME280;9591;52.742;13.650;2023-08-30T14:13:32;100128.03;;;23.15;83.98
18918;BME280;9591;52.742;13.650;2023-08-30T14:16:19;100122.31;;;23.28;83.79
18918;BME280;9591;52.742;13.650;2023-08-30T14:19:06;100123.03;;;23.20;85.52
18918;BME280;9591;52.742;13.650;2023-08-30T14:21:53;100117.41;;;23.41;83.73
18918;BME280;9591;52.742;13.650;2023-08-30T14:24:42;100112.50;;;23.36;83.94
18918;BME280;9591;52.742;13.650;2023-08-30T14:27:47;100120.91;;;23.24;86.69
18918;BME280;9591;52.742;13.650;2023-08-30T14:30:34;100114.91;;;23.30;85.93
18918;BME280;9591;52.742;13.650;2023-08-30T14:33:21;100117.63;;;23.20;87.42
18918;BME280;9591;52.742;13.650;2023-08-30T14:36:08;100114.19;;;23.37;85.63
18918;BME280;9591;52.742;13.650;2023-08-30T14:38:56;100107.03;;;23.46;84.82
18918;BME280;9591;52.742;13.650;2023-08-30T14:41:44;100118.38;;;23.69;83.25